sensor_id;sensor_type;location;lat;lon;timestamp;pressure;altitude;pressure_sealevel;temperature;humidity
36726;BME280;44936;52.086;5.150;2023-02-07T00:00:34;104397.75;;;1.86;100.00
36726;BME280;44936;52.086;5.150;2023-02-07T00:02:59;104400.16;;;1.84;100.00
36726;BME280;44936;52.086;5.150;2023-02-07T00:05:27;104399.38;;;1.85;100.00
36726;BME280;44936;52.086;5.150;2023-02-07T00:07:52;104398.66;;;1.86;100.00
36726;BME280;44936;52.086;5.150;2023-02-07T00:10:18;104396.81;;;1.85;100.00
36726;BME280;44936;52.086;5.150;2023-02-07T00:12:43;104388.94;;;1.75;100.00
36726;BME280;44936;52.086;5.150;2023-02-07T00:15:09;104405.97;;;1.82;100.00
36726;BME280;44936;52.086;5.150;2023-02-07T00:17:34;104363.44;;;1.61;100.00
36726;BME280;44936;52.086;5.150;2023-02-07T00:20:00;104388.03;;;1.75;100.00
36726;BME280;44936;52.086;5.150;2023-02-07T00:22:25;104398.50;;;1.76;100.00
36726;BME280;44936;52.086;5.150;2023-02-07T00:24:51;104401.72;;;1.74;100.00
36726;BME280;44936;52.086;5.150;2023-02-07T00:27:16;104364.06;;;1.50;100.00
36726;BME280;44936;52.086;5.150;2023-02-07T00:29:42;104343.09;;;1.38;100.00
36726;BME280;44936;52.086;5.150;2023-02-07T00:32:07;104359.66;;;1.49;100.00
36726;BME280;44936;52.086;5.150;2023-02-07T00:34:33;104327.91;;;1.32;100.00
36726;BME280;44936;52.086;5.150;2023-02-07T00:37:01;104403.91;;;1.69;100.00
36726;BME280;44936;52.086;5.150;2023-02-07T00:39:26;104357.81;;;1.48;100.00
36726;BME280;44936;52.086;5.150;2023-02-07T00:41:52;104386.84;;;1.62;100.00
36726;BME280;44936;52.086;5.150;2023-02-07T00:44:18;104398.84;;;1.70;100.00
36726;BME280;44936;52.086;5.150;2023-02-07T00:46:46;104386.72;;;1.61;100.00
36726;BME280;44936;52.086;5.150;2023-02-07T00:49:12;104402.81;;;1.67;100.00
36726;BME280;44936;52.086;5.150;2023-02-07T00:51:37;104399.94;;;1.64;100.00
36726;BME280;44936;52.086;5.150;2023-02-07T00:54:03;104371.25;;;1.44;100.00
36726;BME280;44936;52.086;5.150;2023-02-07T00:56:29;104365.03;;;1.41;100.00
36726;BME280;44936;52.086;5.150;2023-02-07T00:58:55;104395.06;;;1.58;100.00
36726;BME280;44936;52.086;5.150;2023-02-07T01:01:21;104332.34;;;1.25;100.00
36726;BME280;44936;52.086;5.150;2023-02-07T01:03:48;104393.84;;;1.63;100.00
36726;BME280;44936;52.086;5.150;2023-02-07T01:06:13;104361.19;;;1.47;100.00
36726;BME280;44936;52.086;5.150;2023-02-07T01:08:40;104360.13;;;1.45;100.00
36726;BME280;44936;52.086;5.150;2023-02-07T01:11:11;104393.41;;;1.59;100.00
36726;BME280;44936;52.086;5.150;2023-02-07T01:13:38;104398.78;;;1.52;100.00
36726;BME280;44936;52.086;5.150;2023-02-07T01:16:04;104387.94;;;1.56;100.00
36726;BME280;44936;52.086;5.150;2023-02-07T01:18:30;104388.44;;;1.43;100.00
36726;BME280;44936;52.086;5.150;2023-02-07T01:20:57;104394.66;;;1.54;100.00
36726;BME280;44936;52.086;5.150;2023-02-07T01:23:23;104354.97;;;1.36;100.00
36726;BME280;44936;52.086;5.150;2023-02-07T01:25:48;104377.75;;;1.49;100.00
36726;BME280;44936;52.086;5.150;2023-02-07T01:28:14;104385.38;;;1.47;100.00
36726;BME280;44936;52.086;5.150;2023-02-07T01:30:41;104379.88;;;1.53;100.00
36726;BME280;44936;52.086;5.150;2023-02-07T01:33:07;104375.63;;;1.53;100.00
36726;BME280;44936;52.086;5.150;2023-02-07T01:35:32;104334.97;;;1.16;100.00
36726;BME280;44936;52.086;5.150;2023-02-07T01:37:58;104376.56;;;1.45;100.00
36726;BME280;44936;52.086;5.150;2023-02-07T01:40:24;104385.50;;;1.49;100.00
36726;BME280;44936;52.086;5.150;2023-02-07T01:42:51;104397.69;;;1.50;100.00
36726;BME280;44936;52.086;5.150;2023-02-07T01:45:35;104397.88;;;1.42;100.00
36726;BME280;44936;52.086;5.150;2023-02-07T01:48:22;104410.34;;;1.47;100.00
36726;BME280;44936;52.086;5.150;2023-02-07T01:50:48;104411.72;;;1.52;100.00
36726;BME280;44936;52.086;5.150;2023-02-07T01:53:18;104417.66;;;1.51;100.00
36726;BME280;44936;52.086;5.150;2023-02-07T01:55:46;104414.59;;;1.46;100.00
36726;BME280;44936;52.086;5.150;2023-02-07T01:58:13;104357.13;;;1.23;100.00
36726;BME280;44936;52.086;5.150;2023-02-07T02:00:39;104416.28;;;1.46;100.00
36726;BME280;44936;52.086;5.150;2023-02-07T02:05:34;104415.22;;;1.44;100.00
36726;BME280;44936;52.086;5.150;2023-02-07T02:08:00;104431.91;;;1.56;100.00
36726;BME280;44936;52.086;5.150;2023-02-07T02:16:47;104421.28;;;1.53;100.00
36726;BME280;44936;52.086;5.150;2023-02-07T02:19:42;104431.16;;;1.48;100.00
36726;BME280;44936;52.086;5.150;2023-02-07T02:25:14;104445.63;;;1.55;100.00
36726;BME280;44936;52.086;5.150;2023-02-07T02:28:05;104435.91;;;1.52;100.00
36726;BME280;44936;52.086;5.150;2023-02-07T02:33:56;104411.38;;;1.49;100.00
36726;BME280;44936;52.086;5.150;2023-02-07T02:44:59;104418.25;;;1.39;100.00
36726;BME280;44936;52.086;5.150;2023-02-07T02:47:28;104415.25;;;1.35;100.00
36726;BME280;44936;52.086;5.150;2023-02-07T02:49:58;104382.28;;;1.15;100.00
36726;BME280;44936;52.086;5.150;2023-02-07T02:52:25;104398.50;;;1.14;100.00
36726;BME280;44936;52.086;5.150;2023-02-07T02:54:51;104430.91;;;1.36;100.00
36726;BME280;44936;52.086;5.150;2023-02-07T03:07:56;104397.91;;;1.25;100.00
36726;BME280;44936;52.086;5.150;2023-02-07T03:10:53;104385.44;;;1.21;100.00
36726;BME280;44936;52.086;5.150;2023-02-07T03:13:31;104381.94;;;1.21;100.00
36726;BME280;44936;52.086;5.150;2023-02-07T03:19:03;104370.56;;;1.10;100.00
36726;BME280;44936;52.086;5.150;2023-02-07T03:21:44;104373.91;;;1.18;100.00
36726;BME280;44936;52.086;5.150;2023-02-07T03:24:17;104312.81;;;0.83;100.00
36726;BME280;44936;52.086;5.150;2023-02-07T03:26:44;104372.06;;;1.17;100.00
36726;BME280;44936;52.086;5.150;2023-02-07T03:29:12;104325.59;;;0.91;100.00
36726;BME280;44936;52.086;5.150;2023-02-07T03:31:40;104345.78;;;1.03;100.00
36726;BME280;44936;52.086;5.150;2023-02-07T03:34:10;104363.84;;;1.12;100.00
36726;BME280;44936;52.086;5.150;2023-02-07T03:36:49;104355.19;;;1.03;100.00
36726;BME280;44936;52.086;5.150;2023-02-07T03:39:17;104331.19;;;0.87;100.00
36726;BME280;44936;52.086;5.150;2023-02-07T03:41:48;104340.75;;;0.96;100.00
36726;BME280;44936;52.086;5.150;2023-02-07T03:44:18;104299.59;;;0.80;100.00
36726;BME280;44936;52.086;5.150;2023-02-07T03:46:48;104351.25;;;1.06;100.00
36726;BME280;44936;52.086;5.150;2023-02-07T03:49:14;104318.59;;;0.90;100.00
36726;BME280;44936;52.086;5.150;2023-02-07T03:51:44;104335.28;;;1.02;100.00
36726;BME280;44936;52.086;5.150;2023-02-07T03:54:09;104301.56;;;0.74;100.00
36726;BME280;44936;52.086;5.150;2023-02-07T03:56:35;104354.16;;;1.01;100.00
36726;BME280;44936;52.086;5.150;2023-02-07T03:59:02;104262.69;;;0.55;100.00
36726;BME280;44936;52.086;5.150;2023-02-07T04:01:27;104293.22;;;0.68;100.00
36726;BME280;44936;52.086;5.150;2023-02-07T04:03:53;104339.25;;;0.90;100.00
36726;BME280;44936;52.086;5.150;2023-02-07T04:06:18;104303.53;;;0.68;100.00
36726;BME280;44936;52.086;5.150;2023-02-07T04:08:44;104334.09;;;0.81;100.00
36726;BME280;44936;52.086;5.150;2023-02-07T04:11:09;104342.28;;;0.85;100.00
36726;BME280;44936;52.086;5.150;2023-02-07T04:13:35;104305.84;;;0.74;100.00
36726;BME280;44936;52.086;5.150;2023-02-07T04:16:01;104330.13;;;0.84;100.00
36726;BME280;44936;52.086;5.150;2023-02-07T04:18:28;104325.75;;;0.75;100.00
36726;BME280;44936;52.086;5.150;2023-02-07T04:21:02;104282.75;;;0.58;100.00
36726;BME280;44936;52.086;5.150;2023-02-07T04:23:28;104326.50;;;0.82;100.00
36726;BME280;44936;52.086;5.150;2023-02-07T04:25:54;104326.50;;;0.82;100.00
36726;BME280;44936;52.086;5.150;2023-02-07T04:28:19;104317.22;;;0.76;100.00
36726;BME280;44936;52.086;5.150;2023-02-07T04:30:45;104324.97;;;0.76;100.00
36726;BME280;44936;52.086;5.150;2023-02-07T04:33:10;104291.88;;;0.54;100.00
36726;BME280;44936;52.086;5.150;2023-02-07T04:35:35;104287.16;;;0.50;100.00
36726;BME280;44936;52.086;5.150;2023-02-07T04:38:01;104324.06;;;0.75;100.00
36726;BME280;44936;52.086;5.150;2023-02-07T04:40:26;104269.41;;;0.36;100.00
36726;BME280;44936;52.086;5.150;2023-02-07T04:42:51;104279.41;;;0.50;100.00
36726;BME280;44936;52.086;5.150;2023-02-07T04:45:17;104335.03;;;0.81;100.00
36726;BME280;44936;52.086;5.150;2023-02-07T04:47:42;104272.41;;;0.49;100.00
36726;BME280;44936;52.086;5.150;2023-02-07T04:50:08;104291.88;;;0.63;100.00
36726;BME280;44936;52.086;5.150;2023-02-07T04:52:33;104298.38;;;0.60;100.00
36726;BME280;44936;52.086;5.150;2023-02-07T04:54:58;104342.78;;;0.81;100.00
36726;BME280;44936;52.086;5.150;2023-02-07T04:57:24;104341.38;;;0.76;100.00
36726;BME280;44936;52.086;5.150;2023-02-07T04:59:49;104331.81;;;0.58;100.00
36726;BME280;44936;52.086;5.150;2023-02-07T05:02:15;104318.00;;;0.57;100.00
36726;BME280;44936;52.086;5.150;2023-02-07T05:04:40;104330.28;;;0.60;100.00
36726;BME280;44936;52.086;5.150;2023-02-07T05:07:08;104352.06;;;0.71;100.00
36726;BME280;44936;52.086;5.150;2023-02-07T05:09:33;104337.59;;;0.64;100.00
36726;BME280;44936;52.086;5.150;2023-02-07T05:11:58;104323.00;;;0.56;100.00
36726;BME280;44936;52.086;5.150;2023-02-07T05:14:24;104322.69;;;0.53;100.00
36726;BME280;44936;52.086;5.150;2023-02-07T05:16:49;104328.19;;;0.56;100.00
36726;BME280;44936;52.086;5.150;2023-02-07T05:19:15;104362.69;;;0.74;100.00
36726;BME280;44936;52.086;5.150;2023-02-07T05:21:40;104330.00;;;0.57;100.00
36726;BME280;44936;52.086;5.150;2023-02-07T05:24:05;104324.69;;;0.55;100.00
36726;BME280;44936;52.086;5.150;2023-02-07T05:26:31;104305.56;;;0.45;100.00
36726;BME280;44936;52.086;5.150;2023-02-07T05:28:56;104355.97;;;0.67;100.00
36726;BME280;44936;52.086;5.150;2023-02-07T05:31:22;104319.19;;;0.44;100.00
36726;BME280;44936;52.086;5.150;2023-02-07T05:34:07;104376.19;;;0.45;100.00
36726;BME280;44936;52.086;5.150;2023-02-07T05:36:32;104341.34;;;0.24;100.00
36726;BME280;44936;52.086;5.150;2023-02-07T05:38:58;104404.00;;;0.48;100.00
36726;BME280;44936;52.086;5.150;2023-02-07T05:41:23;104438.91;;;0.53;100.00
36726;BME280;44936;52.086;5.150;2023-02-07T05:43:51;104439.38;;;0.49;100.00
36726;BME280;44936;52.086;5.150;2023-02-07T05:46:17;104489.53;;;0.60;100.00
36726;BME280;44936;52.086;5.150;2023-02-07T05:48:42;104471.72;;;0.37;100.00
36726;BME280;44936;52.086;5.150;2023-02-07T05:51:07;104512.81;;;0.68;100.00
36726;BME280;44936;52.086;5.150;2023-02-07T05:53:38;104470.47;;;0.33;100.00
36726;BME280;44936;52.086;5.150;2023-02-07T05:56:04;104494.03;;;0.27;100.00
36726;BME280;44936;52.086;5.150;2023-02-07T05:58:29;104558.84;;;0.55;100.00
36726;BME280;44936;52.086;5.150;2023-02-07T06:00:55;104531.28;;;0.38;100.00
36726;BME280;44936;52.086;5.150;2023-02-07T06:03:20;104554.44;;;0.54;100.00
36726;BME280;44936;52.086;5.150;2023-02-07T06:05:46;104551.84;;;0.54;100.00
36726;BME280;44936;52.086;5.150;2023-02-07T06:08:11;104535.06;;;0.42;100.00
36726;BME280;44936;52.086;5.150;2023-02-07T06:10:36;104521.59;;;0.44;100.00
36726;BME280;44936;52.086;5.150;2023-02-07T06:13:02;104528.63;;;0.63;100.00
36726;BME280;44936;52.086;5.150;2023-02-07T06:15:27;104540.06;;;0.73;100.00
36726;BME280;44936;52.086;5.150;2023-02-07T06:17:52;104479.78;;;0.40;100.00
36726;BME280;44936;52.086;5.150;2023-02-07T06:20:18;104512.78;;;0.60;100.00
36726;BME280;44936;52.086;5.150;2023-02-07T06:22:43;104467.47;;;0.37;100.00
36726;BME280;44936;52.086;5.150;2023-02-07T06:25:09;104489.09;;;0.55;100.00
36726;BME280;44936;52.086;5.150;2023-02-07T06:27:40;104495.78;;;0.62;100.00
36726;BME280;44936;52.086;5.150;2023-02-07T06:30:08;104458.59;;;0.26;100.00
36726;BME280;44936;52.086;5.150;2023-02-07T06:32:34;104451.94;;;0.28;100.00
36726;BME280;44936;52.086;5.150;2023-02-07T06:34:59;104484.50;;;0.52;100.00
36726;BME280;44936;52.086;5.150;2023-02-07T06:37:24;104441.00;;;0.31;100.00
36726;BME280;44936;52.086;5.150;2023-02-07T06:39:51;104441.31;;;0.34;100.00
36726;BME280;44936;52.086;5.150;2023-02-07T06:42:16;104465.97;;;0.48;100.00
36726;BME280;44936;52.086;5.150;2023-02-07T06:44:42;104448.66;;;0.47;100.00
36726;BME280;44936;52.086;5.150;2023-02-07T06:47:07;104418.56;;;0.39;100.00
36726;BME280;44936;52.086;5.150;2023-02-07T06:49:32;104421.31;;;0.49;100.00
36726;BME280;44936;52.086;5.150;2023-02-07T06:51:58;104376.75;;;0.25;100.00
36726;BME280;44936;52.086;5.150;2023-02-07T06:54:26;104399.25;;;0.35;100.00
36726;BME280;44936;52.086;5.150;2023-02-07T06:56:52;104371.44;;;0.24;100.00
36726;BME280;44936;52.086;5.150;2023-02-07T06:59:17;104440.16;;;0.48;100.00
36726;BME280;44936;52.086;5.150;2023-02-07T07:01:43;104417.50;;;0.37;100.00
36726;BME280;44936;52.086;5.150;2023-02-07T07:04:08;104370.22;;;0.20;100.00
36726;BME280;44936;52.086;5.150;2023-02-07T07:06:33;104440.28;;;0.49;100.00
36726;BME280;44936;52.086;5.150;2023-02-07T07:09:02;104401.06;;;0.27;100.00
36726;BME280;44936;52.086;5.150;2023-02-07T07:11:27;104387.56;;;0.30;100.00
36726;BME280;44936;52.086;5.150;2023-02-07T07:13:53;104376.59;;;0.24;100.00
36726;BME280;44936;52.086;5.150;2023-02-07T07:16:18;104419.75;;;0.42;100.00
36726;BME280;44936;52.086;5.150;2023-02-07T07:18:43;104387.22;;;0.18;100.00
36726;BME280;44936;52.086;5.150;2023-02-07T07:21:09;104364.41;;;0.06;100.00
36726;BME280;44936;52.086;5.150;2023-02-07T07:23:35;104394.25;;;0.28;100.00
36726;BME280;44936;52.086;5.150;2023-02-07T07:26:00;104377.34;;;0.14;100.00
36726;BME280;44936;52.086;5.150;2023-02-07T07:28:26;104402.75;;;0.27;100.00
36726;BME280;44936;52.086;5.150;2023-02-07T07:30:51;104403.19;;;0.32;100.00
36726;BME280;44936;52.086;5.150;2023-02-07T07:33:17;104366.84;;;0.13;100.00
36726;BME280;44936;52.086;5.150;2023-02-07T07:35:42;104367.47;;;0.10;100.00
36726;BME280;44936;52.086;5.150;2023-02-07T07:38:07;104381.53;;;-0.04;100.00
36726;BME280;44936;52.086;5.150;2023-02-07T07:40:33;104386.34;;;-0.15;100.00
36726;BME280;44936;52.086;5.150;2023-02-07T07:42:58;104432.75;;;0.09;100.00
36726;BME280;44936;52.086;5.150;2023-02-07T07:45:24;104418.91;;;0.00;100.00
36726;BME280;44936;52.086;5.150;2023-02-07T07:47:50;104453.97;;;0.07;100.00
36726;BME280;44936;52.086;5.150;2023-02-07T07:50:15;104521.09;;;0.40;100.00
36726;BME280;44936;52.086;5.150;2023-02-07T07:52:41;104525.38;;;0.48;100.00
36726;BME280;44936;52.086;5.150;2023-02-07T07:55:07;104529.75;;;0.40;100.00
36726;BME280;44936;52.086;5.150;2023-02-07T07:57:33;104518.22;;;0.37;100.00
36726;BME280;44936;52.086;5.150;2023-02-07T07:59:59;104535.88;;;0.49;100.00
36726;BME280;44936;52.086;5.150;2023-02-07T08:02:24;104498.72;;;0.32;100.00
36726;BME280;44936;52.086;5.150;2023-02-07T08:04:49;104557.56;;;0.43;100.00
36726;BME280;44936;52.086;5.150;2023-02-07T08:07:15;104568.38;;;0.47;100.00
36726;BME280;44936;52.086;5.150;2023-02-07T08:09:40;104547.19;;;0.34;100.00
36726;BME280;44936;52.086;5.150;2023-02-07T08:12:06;104581.63;;;0.59;100.00
36726;BME280;44936;52.086;5.150;2023-02-07T08:14:31;104565.50;;;0.53;100.00
36726;BME280;44936;52.086;5.150;2023-02-07T08:16:56;104574.53;;;0.65;100.00
36726;BME280;44936;52.086;5.150;2023-02-07T08:19:25;104526.44;;;0.50;100.00
36726;BME280;44936;52.086;5.150;2023-02-07T08:21:51;104507.00;;;0.45;100.00
36726;BME280;44936;52.086;5.150;2023-02-07T08:24:16;104471.09;;;0.31;100.00
36726;BME280;44936;52.086;5.150;2023-02-07T08:26:41;104540.19;;;0.75;100.00
36726;BME280;44936;52.086;5.150;2023-02-07T08:29:07;104491.03;;;0.49;100.00
36726;BME280;44936;52.086;5.150;2023-02-07T08:31:32;104498.34;;;0.53;100.00
36726;BME280;44936;52.086;5.150;2023-02-07T08:33:58;104470.66;;;0.43;100.00
36726;BME280;44936;52.086;5.150;2023-02-07T08:36:23;104476.94;;;0.54;100.00
36726;BME280;44936;52.086;5.150;2023-02-07T08:38:49;104497.03;;;0.65;100.00
36726;BME280;44936;52.086;5.150;2023-02-07T08:41:15;104503.72;;;0.63;100.00
36726;BME280;44936;52.086;5.150;2023-02-07T08:43:40;104487.56;;;0.48;100.00
36726;BME280;44936;52.086;5.150;2023-02-07T08:46:06;104472.19;;;0.41;100.00
36726;BME280;44936;52.086;5.150;2023-02-07T08:48:31;104455.44;;;0.29;100.00
36726;BME280;44936;52.086;5.150;2023-02-07T08:50:57;104517.34;;;0.53;100.00
36726;BME280;44936;52.086;5.150;2023-02-07T08:53:22;104514.59;;;0.52;100.00
36726;BME280;44936;52.086;5.150;2023-02-07T08:55:47;104553.38;;;0.61;100.00
36726;BME280;44936;52.086;5.150;2023-02-07T08:58:13;104611.69;;;0.83;100.00
36726;BME280;44936;52.086;5.150;2023-02-07T09:00:38;104618.53;;;0.82;100.00
36726;BME280;44936;52.086;5.150;2023-02-07T09:03:09;104582.19;;;0.48;100.00
36726;BME280;44936;52.086;5.150;2023-02-07T09:05:35;104595.19;;;0.65;100.00
36726;BME280;44936;52.086;5.150;2023-02-07T09:08:01;104649.72;;;0.93;100.00
36726;BME280;44936;52.086;5.150;2023-02-07T09:10:27;104625.06;;;0.88;100.00
36726;BME280;44936;52.086;5.150;2023-02-07T09:12:52;104639.38;;;0.93;100.00
36726;BME280;44936;52.086;5.150;2023-02-07T09:15:17;104641.50;;;0.97;100.00
36726;BME280;44936;52.086;5.150;2023-02-07T09:17:43;104622.97;;;1.01;100.00
36726;BME280;44936;52.086;5.150;2023-02-07T09:20:09;104617.16;;;0.86;100.00
36726;BME280;44936;52.086;5.150;2023-02-07T09:22:35;104592.66;;;0.74;100.00
36726;BME280;44936;52.086;5.150;2023-02-07T09:25:20;104665.00;;;1.16;100.00
36726;BME280;44936;52.086;5.150;2023-02-07T09:27:46;104658.94;;;1.15;100.00
36726;BME280;44936;52.086;5.150;2023-02-07T09:30:11;104644.94;;;1.30;100.00
36726;BME280;44936;52.086;5.150;2023-02-07T09:32:37;104629.59;;;1.32;100.00
36726;BME280;44936;52.086;5.150;2023-02-07T09:35:06;104627.94;;;1.41;100.00
36726;BME280;44936;52.086;5.150;2023-02-07T09:37:35;104595.22;;;1.24;100.00
36726;BME280;44936;52.086;5.150;2023-02-07T09:40:01;104622.59;;;1.39;100.00
36726;BME280;44936;52.086;5.150;2023-02-07T09:42:33;104632.94;;;1.39;100.00
36726;BME280;44936;52.086;5.150;2023-02-07T09:45:10;104637.38;;;1.58;100.00
36726;BME280;44936;52.086;5.150;2023-02-07T09:47:38;104640.72;;;1.57;100.00
36726;BME280;44936;52.086;5.150;2023-02-07T09:50:14;104639.22;;;1.67;100.00
36726;BME280;44936;52.086;5.150;2023-02-07T09:52:57;104631.63;;;1.69;100.00
36726;BME280;44936;52.086;5.150;2023-02-07T09:55:49;104598.13;;;1.70;100.00
36726;BME280;44936;52.086;5.150;2023-02-07T09:58:18;104617.59;;;1.93;100.00
36726;BME280;44936;52.086;5.150;2023-02-07T10:00:49;104616.38;;;1.89;100.00
36726;BME280;44936;52.086;5.150;2023-02-07T10:03:20;104604.97;;;1.96;100.00
36726;BME280;44936;52.086;5.150;2023-02-07T10:06:00;104589.09;;;2.02;100.00
36726;BME280;44936;52.086;5.150;2023-02-07T10:08:29;104599.44;;;2.02;100.00
36726;BME280;44936;52.086;5.150;2023-02-07T10:11:11;104611.81;;;2.04;100.00
36726;BME280;44936;52.086;5.150;2023-02-07T10:14:13;104621.53;;;2.07;100.00
36726;BME280;44936;52.086;5.150;2023-02-07T10:16:46;104612.41;;;1.93;100.00
36726;BME280;44936;52.086;5.150;2023-02-07T10:19:50;104661.75;;;2.03;100.00
36726;BME280;44936;52.086;5.150;2023-02-07T10:22:43;104665.84;;;2.10;100.00
36726;BME280;44936;52.086;5.150;2023-02-07T10:25:24;104684.31;;;1.95;100.00
36726;BME280;44936;52.086;5.150;2023-02-07T10:30:40;104700.28;;;2.00;100.00
36726;BME280;44936;52.086;5.150;2023-02-07T10:33:30;104699.53;;;2.10;100.00
36726;BME280;44936;52.086;5.150;2023-02-07T10:36:01;104707.44;;;2.20;100.00
36726;BME280;44936;52.086;5.150;2023-02-07T10:38:44;104678.03;;;2.11;100.00
36726;BME280;44936;52.086;5.150;2023-02-07T10:41:21;104676.81;;;2.16;100.00
36726;BME280;44936;52.086;5.150;2023-02-07T10:43:50;104704.81;;;2.37;100.00
36726;BME280;44936;52.086;5.150;2023-02-07T10:46:17;104665.09;;;2.19;100.00
36726;BME280;44936;52.086;5.150;2023-02-07T10:48:44;104652.63;;;2.07;100.00
36726;BME280;44936;52.086;5.150;2023-02-07T10:51:35;104707.28;;;2.36;100.00
36726;BME280;44936;52.086;5.150;2023-02-07T10:54:10;104714.59;;;2.48;100.00
36726;BME280;44936;52.086;5.150;2023-02-07T10:56:45;104716.25;;;2.57;100.00
36726;BME280;44936;52.086;5.150;2023-02-07T10:59:40;104708.88;;;2.70;100.00
36726;BME280;44936;52.086;5.150;2023-02-07T11:04:54;104727.81;;;2.60;100.00
36726;BME280;44936;52.086;5.150;2023-02-07T11:07:20;104722.94;;;2.63;100.00
36726;BME280;44936;52.086;5.150;2023-02-07T11:09:46;104729.94;;;2.64;100.00
36726;BME280;44936;52.086;5.150;2023-02-07T11:14:39;104733.88;;;2.78;100.00
36726;BME280;44936;52.086;5.150;2023-02-07T11:17:04;104730.50;;;2.79;100.00
36726;BME280;44936;52.086;5.150;2023-02-07T11:19:30;104733.25;;;2.80;100.00
36726;BME280;44936;52.086;5.150;2023-02-07T11:22:09;104723.78;;;2.81;100.00
36726;BME280;44936;52.086;5.150;2023-02-07T11:24:41;104726.50;;;2.91;100.00
36726;BME280;44936;52.086;5.150;2023-02-07T11:29:40;104729.28;;;2.93;100.00
36726;BME280;44936;52.086;5.150;2023-02-07T11:32:08;104722.81;;;2.98;100.00
36726;BME280;44936;52.086;5.150;2023-02-07T11:37:17;104709.44;;;2.93;100.00
36726;BME280;44936;52.086;5.150;2023-02-07T11:39:43;104725.09;;;3.03;100.00
36726;BME280;44936;52.086;5.150;2023-02-07T11:42:17;104716.69;;;3.06;100.00
36726;BME280;44936;52.086;5.150;2023-02-07T11:44:43;104696.25;;;3.00;100.00
36726;BME280;44936;52.086;5.150;2023-02-07T11:47:14;104696.56;;;3.03;100.00
36726;BME280;44936;52.086;5.150;2023-02-07T11:49:42;104691.22;;;3.10;100.00
36726;BME280;44936;52.086;5.150;2023-02-07T11:52:09;104680.97;;;3.12;100.00
36726;BME280;44936;52.086;5.150;2023-02-07T11:54:37;104698.91;;;3.28;100.00
36726;BME280;44936;52.086;5.150;2023-02-07T11:57:13;104698.44;;;3.23;100.00
36726;BME280;44936;52.086;5.150;2023-02-07T11:59:49;104691.84;;;3.27;100.00
36726;BME280;44936;52.086;5.150;2023-02-07T12:02:22;104662.91;;;3.22;100.00
36726;BME280;44936;52.086;5.150;2023-02-07T12:04:49;104663.44;;;3.09;100.00
36726;BME280;44936;52.086;5.150;2023-02-07T12:07:20;104677.66;;;3.32;100.00
36726;BME280;44936;52.086;5.150;2023-02-07T12:10:00;104659.50;;;3.32;100.00
36726;BME280;44936;52.086;5.150;2023-02-07T12:20:26;104673.84;;;3.56;100.00
36726;BME280;44936;52.086;5.150;2023-02-07T12:23:17;104674.88;;;3.39;100.00
36726;BME280;44936;52.086;5.150;2023-02-07T12:25:49;104658.75;;;3.52;100.00
36726;BME280;44936;52.086;5.150;2023-02-07T12:28:33;104647.50;;;3.61;100.00
36726;BME280;44936;52.086;5.150;2023-02-07T12:31:04;104648.16;;;3.59;100.00
36726;BME280;44936;52.086;5.150;2023-02-07T12:33:43;104647.06;;;3.65;100.00
36726;BME280;44936;52.086;5.150;2023-02-07T12:36:18;104673.16;;;3.86;100.00
36726;BME280;44936;52.086;5.150;2023-02-07T12:38:53;104625.91;;;3.52;100.00
36726;BME280;44936;52.086;5.150;2023-02-07T12:41:24;104647.25;;;3.77;100.00
36726;BME280;44936;52.086;5.150;2023-02-07T12:47:06;104676.63;;;4.05;100.00
36726;BME280;44936;52.086;5.150;2023-02-07T12:50:07;104671.22;;;4.12;100.00
36726;BME280;44936;52.086;5.150;2023-02-07T13:03:29;104635.19;;;4.25;100.00
36726;BME280;44936;52.086;5.150;2023-02-07T13:09:09;104606.66;;;4.36;100.00
36726;BME280;44936;52.086;5.150;2023-02-07T13:11:47;104617.59;;;4.42;100.00
36726;BME280;44936;52.086;5.150;2023-02-07T13:14:35;104612.41;;;4.42;100.00
36726;BME280;44936;52.086;5.150;2023-02-07T13:25:19;104564.94;;;4.34;100.00
36726;BME280;44936;52.086;5.150;2023-02-07T13:27:46;104554.28;;;4.41;100.00
36726;BME280;44936;52.086;5.150;2023-02-07T13:30:16;104543.25;;;4.44;100.00
36726;BME280;44936;52.086;5.150;2023-02-07T13:32:43;104527.00;;;4.36;100.00
36726;BME280;44936;52.086;5.150;2023-02-07T13:35:22;104539.47;;;4.40;100.00
36726;BME280;44936;52.086;5.150;2023-02-07T13:37:51;104520.91;;;4.46;100.00
36726;BME280;44936;52.086;5.150;2023-02-07T13:43:15;104532.75;;;4.52;100.00
36726;BME280;44936;52.086;5.150;2023-02-07T13:49:13;104510.50;;;4.46;100.00
36726;BME280;44936;52.086;5.150;2023-02-07T13:54:32;104490.34;;;4.33;100.00
36726;BME280;44936;52.086;5.150;2023-02-07T13:57:01;104518.59;;;4.69;100.00
36726;BME280;44936;52.086;5.150;2023-02-07T14:02:29;104515.06;;;4.59;100.00
36726;BME280;44936;52.086;5.150;2023-02-07T14:05:05;104496.97;;;4.50;100.00
36726;BME280;44936;52.086;5.150;2023-02-07T14:07:32;104447.81;;;4.22;100.00
36726;BME280;44936;52.086;5.150;2023-02-07T14:10:01;104494.13;;;4.57;100.00
36726;BME280;44936;52.086;5.150;2023-02-07T14:12:31;104514.69;;;4.64;100.00
36726;BME280;44936;52.086;5.150;2023-02-07T14:18:02;104533.66;;;4.73;100.00
36726;BME280;44936;52.086;5.150;2023-02-07T14:25:41;104530.03;;;4.71;100.00
36726;BME280;44936;52.086;5.150;2023-02-07T14:28:28;104481.25;;;4.38;100.00
36726;BME280;44936;52.086;5.150;2023-02-07T14:31:18;104511.59;;;4.68;100.00
36726;BME280;44936;52.086;5.150;2023-02-07T14:34:11;104515.34;;;4.72;100.00
36726;BME280;44936;52.086;5.150;2023-02-07T14:36:38;104537.84;;;4.71;100.00
36726;BME280;44936;52.086;5.150;2023-02-07T14:41:36;104551.22;;;4.76;100.00
36726;BME280;44936;52.086;5.150;2023-02-07T14:44:05;104546.28;;;4.69;100.00
36726;BME280;44936;52.086;5.150;2023-02-07T14:46:34;104528.47;;;4.73;100.00